createdAt,value
2023-05-07T00:00:31.306Z,9.10
2023-05-07T00:05:33.271Z,14.33
2023-05-07T00:10:34.980Z,8.87
2023-05-07T00:15:36.696Z,9.67
2023-05-07T00:20:38.489Z,9.10
2023-05-07T00:25:40.152Z,10.00
2023-05-07T00:30:41.927Z,9.00
2023-05-07T00:35:43.937Z,12.33
2023-05-07T00:40:46.329Z,11.77
2023-05-07T00:45:48.430Z,11.00
2023-05-07T00:50:50.293Z,12.30
2023-05-07T00:55:52.039Z,13.93
2023-05-07T01:00:53.703Z,10.40
2023-05-07T01:05:58.644Z,10.53
2023-05-07T01:11:01.631Z,11.50
2023-05-07T01:16:04.733Z,9.50
2023-05-07T01:21:08.468Z,10.83
2023-05-07T01:26:10.144Z,10.77
2023-05-07T01:31:13.389Z,9.57
2023-05-07T01:36:16.257Z,11.30
2023-05-07T01:41:18.072Z,10.13
2023-05-07T01:46:20.377Z,13.40
2023-05-07T01:51:23.225Z,11.50
2023-05-07T01:56:26.068Z,12.20
2023-05-07T02:01:27.781Z,10.80
2023-05-07T02:06:29.531Z,11.63
2023-05-07T02:11:31.221Z,10.47
2023-05-07T02:16:32.973Z,10.17
2023-05-07T02:21:34.636Z,9.60
2023-05-07T02:26:36.296Z,9.33
2023-05-07T02:31:38.077Z,9.47
2023-05-07T02:36:39.824Z,10.67
2023-05-07T02:41:41.481Z,9.17
2023-05-07T02:46:43.148Z,8.40
2023-05-07T02:51:44.818Z,10.17
2023-05-07T02:56:46.462Z,10.00
2023-05-07T03:01:49.362Z,10.37
2023-05-07T03:06:51.026Z,10.70
2023-05-07T03:11:52.842Z,9.67
2023-05-07T03:16:54.728Z,9.50
2023-05-07T03:21:56.476Z,11.53
2023-05-07T03:26:58.611Z,11.23
2023-05-07T03:32:00.281Z,9.80
2023-05-07T03:37:01.948Z,12.53
2023-05-07T03:42:04.128Z,10.93
2023-05-07T03:47:05.882Z,9.40
2023-05-07T03:52:07.652Z,13.50
2023-05-07T03:57:09.421Z,10.50
2023-05-07T04:02:11.195Z,10.30
2023-05-07T04:07:12.882Z,8.70
2023-05-07T04:12:14.549Z,9.90
2023-05-07T04:17:16.247Z,11.30
2023-05-07T04:22:17.922Z,10.07
2023-05-07T04:27:19.615Z,11.60
2023-05-07T04:32:21.271Z,10.63
2023-05-07T04:37:23.261Z,9.23
2023-05-07T04:42:25.163Z,8.50
2023-05-07T04:47:26.929Z,11.67
2023-05-07T04:52:28.741Z,11.73
2023-05-07T04:57:30.411Z,12.43
2023-05-07T05:02:32.138Z,10.37
2023-05-07T05:07:34.086Z,8.47
2023-05-07T05:12:35.760Z,10.17
2023-05-07T05:17:37.933Z,9.73
2023-05-07T05:22:39.946Z,11.37
2023-05-07T05:27:41.692Z,8.50
2023-05-07T05:32:43.417Z,13.03
2023-05-07T05:37:45.312Z,10.50
2023-05-07T05:42:47.512Z,9.57
2023-05-07T05:47:49.398Z,10.77
2023-05-07T05:52:52.188Z,10.33
2023-05-07T05:57:53.938Z,10.13
2023-05-07T06:02:55.832Z,8.43
2023-05-07T06:07:57.513Z,10.20
2023-05-07T06:12:59.222Z,10.13
2023-05-07T06:18:00.974Z,9.83
2023-05-07T06:23:02.722Z,13.10
2023-05-07T06:28:04.636Z,10.90
2023-05-07T06:33:06.406Z,12.17
2023-05-07T06:38:08.117Z,13.07
2023-05-07T06:43:09.792Z,12.07
2023-05-07T06:48:11.456Z,10.37
2023-05-07T06:53:13.293Z,10.67
2023-05-07T06:58:14.988Z,11.07
2023-05-07T07:03:16.721Z,10.03
2023-05-07T07:08:19.024Z,11.30
2023-05-07T07:13:20.866Z,11.33
2023-05-07T07:18:22.644Z,12.57
2023-05-07T07:23:24.747Z,10.70
2023-05-07T07:28:26.710Z,10.60
2023-05-07T07:33:28.388Z,9.70
2023-05-07T07:38:30.249Z,9.83
2023-05-07T07:43:31.935Z,10.30
2023-05-07T07:48:34.089Z,9.87
2023-05-07T07:53:35.824Z,9.63
2023-05-07T07:58:38.834Z,13.63
2023-05-07T08:03:40.707Z,12.10
2023-05-07T08:08:42.521Z,10.87
2023-05-07T08:13:44.283Z,10.70
2023-05-07T08:18:45.913Z,11.63
2023-05-07T08:23:47.608Z,9.73
2023-05-07T08:28:49.389Z,11.77
2023-05-07T08:33:51.589Z,10.37
2023-05-07T08:38:53.644Z,11.00
2023-05-07T08:44:00.023Z,11.10
2023-05-07T08:49:02.089Z,10.43
2023-05-07T08:54:04.583Z,11.30
2023-05-07T08:59:06.667Z,11.10
2023-05-07T09:04:08.575Z,11.40
2023-05-07T09:09:10.315Z,9.87
2023-05-07T09:14:12.041Z,10.93
2023-05-07T09:19:13.772Z,12.53
2023-05-07T09:24:17.405Z,10.70
2023-05-07T09:29:19.582Z,9.30
2023-05-07T09:34:21.464Z,9.23
2023-05-07T09:39:24.301Z,8.93
2023-05-07T09:44:27.783Z,10.67
2023-05-07T09:49:31.239Z,12.43
2023-05-07T09:54:34.662Z,12.33
2023-05-07T09:59:38.961Z,13.53
2023-05-07T10:04:41.524Z,16.10
2023-05-07T10:09:45.395Z,13.73
2023-05-07T10:14:49.307Z,11.57
2023-05-07T10:19:54.206Z,13.47
2023-05-07T10:25:00.563Z,12.17
2023-05-07T10:30:45.625Z,13.27
2023-05-07T10:35:48.543Z,12.93
2023-05-07T10:40:51.849Z,12.73
2023-05-07T10:46:18.968Z,11.07
2023-05-07T10:51:23.029Z,11.23
2023-05-07T10:56:26.278Z,15.40
2023-05-07T11:02:00.142Z,12.50
2023-05-07T11:07:09.244Z,10.37
2023-05-07T11:12:11.191Z,11.83
2023-05-07T11:17:13.352Z,9.60
2023-05-07T11:22:40.697Z,10.17
2023-05-07T11:27:42.925Z,10.93
2023-05-07T11:32:47.822Z,10.63
2023-05-07T11:37:50.024Z,8.97
2023-05-07T11:47:53.583Z,11.33
2023-05-07T11:52:55.386Z,8.57
2023-05-07T11:57:57.052Z,8.63
2023-05-07T12:03:05.177Z,9.53
2023-05-07T12:08:07.017Z,10.23
2023-05-07T12:13:22.955Z,9.83
2023-05-07T12:18:25.934Z,10.20
2023-05-07T12:23:28.099Z,10.20
2023-05-07T12:28:30.025Z,9.47
2023-05-07T12:33:32.715Z,11.87
2023-05-07T12:38:36.897Z,14.33
2023-05-07T12:43:39.327Z,12.27
2023-05-07T12:48:47.310Z,8.93
2023-05-07T12:53:48.983Z,11.00
2023-05-07T12:58:50.925Z,10.77
2023-05-07T13:03:52.867Z,9.93
2023-05-07T13:08:54.680Z,9.57
2023-05-07T13:13:56.359Z,10.43
2023-05-07T13:18:58.057Z,12.20
2023-05-07T13:24:00.598Z,11.07
2023-05-07T13:29:02.234Z,10.20
2023-05-07T13:34:03.962Z,9.20
2023-05-07T13:39:06.014Z,13.17
2023-05-07T13:44:07.765Z,10.03
2023-05-07T13:49:12.164Z,11.33
2023-05-07T13:54:13.869Z,9.80
2023-05-07T13:59:15.740Z,10.03
2023-05-07T14:04:17.576Z,10.00
2023-05-07T14:09:19.354Z,11.43
2023-05-07T14:14:21.184Z,11.40
2023-05-07T14:19:23.769Z,9.10
2023-05-07T14:24:37.454Z,7.73
2023-05-07T14:29:40.663Z,10.57
2023-05-07T14:34:42.318Z,10.10
2023-05-07T14:39:44.104Z,10.07
2023-05-07T14:44:46.592Z,7.97
2023-05-07T14:49:48.542Z,9.17
2023-05-07T14:54:50.243Z,9.13
2023-05-07T14:59:52.143Z,8.20
2023-05-07T15:04:54.099Z,6.93
2023-05-07T15:09:56.014Z,6.60
2023-05-07T15:14:57.765Z,7.27
2023-05-07T15:19:59.525Z,6.37
2023-05-07T15:25:01.350Z,6.80
2023-05-07T15:30:03.344Z,6.47
2023-05-07T15:35:06.265Z,7.87
2023-05-07T15:40:09.182Z,7.17
2023-05-07T15:45:11.894Z,6.47
2023-05-07T15:50:13.904Z,7.17
2023-05-07T15:55:15.670Z,6.60
2023-05-07T16:00:18.853Z,7.53
2023-05-07T16:05:20.602Z,8.97
2023-05-07T16:10:22.888Z,8.43
2023-05-07T16:15:24.574Z,7.20
2023-05-07T16:20:30.459Z,7.67
2023-05-07T16:25:32.387Z,8.03
2023-05-07T16:30:34.423Z,6.60
2023-05-07T16:35:36.172Z,6.60
2023-05-07T16:40:42.000Z,8.60
2023-05-07T16:45:43.692Z,7.13
2023-05-07T16:50:45.487Z,9.20
2023-05-07T16:55:47.182Z,9.20
2023-05-07T17:00:51.074Z,7.43
2023-05-07T17:05:53.212Z,6.77
2023-05-07T17:10:55.346Z,7.87
2023-05-07T17:15:57.084Z,7.37
2023-05-07T17:20:59.422Z,6.67
2023-05-07T17:26:01.118Z,7.37
2023-05-07T17:31:02.826Z,7.03
2023-05-07T17:36:04.759Z,5.30
2023-05-07T17:41:06.597Z,6.50
2023-05-07T17:46:09.263Z,7.60
2023-05-07T17:51:11.266Z,5.73
2023-05-07T17:56:13.016Z,6.63
2023-05-07T18:01:14.797Z,7.17
2023-05-07T18:06:19.087Z,6.80
2023-05-07T18:11:21.803Z,5.90
2023-05-07T18:16:23.608Z,7.73
2023-05-07T18:21:25.416Z,7.33
2023-05-07T18:26:27.738Z,8.00
2023-05-07T18:31:29.432Z,12.97
2023-05-07T18:36:31.166Z,8.23
2023-05-07T18:41:32.852Z,8.70
2023-05-07T18:46:34.641Z,9.80
2023-05-07T18:51:36.450Z,8.47
2023-05-07T18:56:38.160Z,8.40
2023-05-07T19:01:39.935Z,7.60
2023-05-07T19:06:41.647Z,8.37
2023-05-07T19:11:43.320Z,7.80
2023-05-07T19:16:44.996Z,8.60
2023-05-07T19:21:46.710Z,8.73
2023-05-07T19:26:48.403Z,8.73
2023-05-07T19:31:50.130Z,6.47
2023-05-07T19:36:51.827Z,10.20
2023-05-07T19:41:53.493Z,8.67
2023-05-07T19:46:55.258Z,9.47
2023-05-07T19:51:57.360Z,7.57
2023-05-07T19:56:59.039Z,10.60
2023-05-07T20:02:00.782Z,9.07
2023-05-07T20:07:02.505Z,11.17
2023-05-07T20:12:04.487Z,9.70
2023-05-07T20:17:06.200Z,7.27
2023-05-07T20:22:07.868Z,8.57
2023-05-07T20:27:09.580Z,7.63
2023-05-07T20:32:11.324Z,7.80
2023-05-07T20:37:15.591Z,6.10
2023-05-07T20:42:17.335Z,7.90
2023-05-07T20:47:19.132Z,6.40
2023-05-07T20:52:20.903Z,7.70
2023-05-07T20:57:22.608Z,7.73
2023-05-07T21:02:24.359Z,6.60
2023-05-07T21:07:26.030Z,6.67
2023-05-07T21:12:27.693Z,6.30
2023-05-07T21:17:31.647Z,8.77
2023-05-07T21:22:33.713Z,9.90
2023-05-07T21:27:35.538Z,7.13
2023-05-07T21:32:37.262Z,6.00
2023-05-07T21:37:39.048Z,6.37
2023-05-07T21:42:40.713Z,7.30
2023-05-07T21:47:42.450Z,6.90
2023-05-07T21:52:44.140Z,6.93
2023-05-07T21:57:57.438Z,9.90
2023-05-07T22:03:06.704Z,6.87
2023-05-07T22:08:08.501Z,6.77
2023-05-07T22:13:10.393Z,7.13
2023-05-07T22:18:12.173Z,6.67
2023-05-07T22:23:13.881Z,6.93
2023-05-07T22:28:15.924Z,8.17
2023-05-07T22:33:17.657Z,7.10
2023-05-07T22:38:19.493Z,11.43
2023-05-07T22:43:21.319Z,8.57
2023-05-07T22:48:23.030Z,9.23
2023-05-07T22:53:25.363Z,7.73
2023-05-07T22:58:27.038Z,7.97
2023-05-07T23:03:28.776Z,9.37
2023-05-07T23:08:30.672Z,10.33
2023-05-07T23:13:32.363Z,8.53
2023-05-07T23:18:34.065Z,9.13
2023-05-07T23:23:35.817Z,8.27
2023-05-07T23:28:37.500Z,7.00
2023-05-07T23:33:39.409Z,7.57
2023-05-07T23:38:41.063Z,9.33
2023-05-07T23:43:42.750Z,9.77
2023-05-07T23:48:44.432Z,9.60
2023-05-07T23:53:46.299Z,7.00
2023-05-07T23:58:47.968Z,7.93
